createdAt,value
2023-01-23T00:01:33.592Z,100819.16
2023-01-23T00:04:01.091Z,100812.50
2023-01-23T00:06:28.401Z,100815.12
2023-01-23T00:08:56.815Z,100813.47
2023-01-23T00:11:47.942Z,100805.34
2023-01-23T00:14:14.679Z,100805.63
2023-01-23T00:16:41.339Z,100794.06
2023-01-23T00:19:10.117Z,100798.19
2023-01-23T00:21:36.666Z,100796.94
2023-01-23T00:24:03.331Z,100798.78
2023-01-23T00:29:48.153Z,100807.22
2023-01-23T00:32:14.698Z,100808.34
2023-01-23T00:34:41.263Z,100798.09
2023-01-23T00:37:07.909Z,100801.59
2023-01-23T00:42:15.174Z,100806.94
2023-01-23T00:44:41.778Z,100808.28
2023-01-23T00:47:09.192Z,100813.78
2023-01-23T00:49:35.754Z,100815.94
2023-01-23T00:52:11.083Z,100814.31
2023-01-23T00:54:59.328Z,100825.59
2023-01-23T00:57:25.886Z,100825.59
2023-01-23T00:59:52.463Z,100821.91
2023-01-23T01:02:19.014Z,100818.38
2023-01-23T01:04:45.597Z,100826.47
2023-01-23T01:07:36.298Z,100818.53
2023-01-23T01:10:29.362Z,100819.63
2023-01-23T01:12:57.716Z,100810.09
2023-01-23T01:15:24.717Z,100810.03
2023-01-23T01:17:54.170Z,100800.16
2023-01-23T01:20:26.087Z,100798.12
2023-01-23T01:22:54.805Z,100795.56
2023-01-23T01:25:31.314Z,100793.16
2023-01-23T01:27:57.851Z,100799.56
2023-01-23T01:30:27.679Z,100782.56
2023-01-23T01:32:55.009Z,100793.44
2023-01-23T01:35:43.993Z,100785.53
2023-01-23T01:38:54.907Z,100793.66
2023-01-23T01:41:21.589Z,100794.59
2023-01-23T01:43:49.716Z,100798.50
2023-01-23T01:46:21.120Z,100804.81
2023-01-23T01:49:12.830Z,100798.50
2023-01-23T01:52:04.431Z,100803.91
2023-01-23T01:54:36.895Z,100799.50
2023-01-23T01:57:21.138Z,100796.87
2023-01-23T01:59:53.922Z,100801.19
2023-01-23T02:02:34.291Z,100793.66
2023-01-23T02:05:58.304Z,100793.84
2023-01-23T02:09:18.109Z,100798.88
2023-01-23T02:11:45.286Z,100803.72
2023-01-23T02:14:14.445Z,100799.50
2023-01-23T02:16:46.523Z,100794.22
2023-01-23T02:19:54.819Z,100793.31
2023-01-23T02:22:36.026Z,100793.13
2023-01-23T02:25:21.006Z,100793.75
2023-01-23T02:27:47.707Z,100790.28
2023-01-23T02:30:15.907Z,100787.22
2023-01-23T02:32:42.579Z,100792.19
2023-01-23T02:35:15.385Z,100794.28
2023-01-23T02:37:45.681Z,100790.81
2023-01-23T02:40:12.424Z,100786.06
2023-01-23T02:42:43.091Z,100785.78
2023-01-23T02:45:10.389Z,100785.97
2023-01-23T02:47:36.927Z,100784.44
2023-01-23T02:50:03.712Z,100781.88
2023-01-23T02:52:31.977Z,100780.59
2023-01-23T02:55:57.011Z,100776.84
2023-01-23T03:01:05.377Z,100771.09
2023-01-23T03:03:32.013Z,100764.34
2023-01-23T03:05:59.271Z,100764.50
2023-01-23T03:08:33.458Z,100753.91
2023-01-23T03:11:01.494Z,100758.19
2023-01-23T03:13:48.395Z,100754.34
2023-01-23T03:16:15.360Z,100753.59
2023-01-23T03:18:53.610Z,100752.25
2023-01-23T03:21:21.296Z,100757.50
2023-01-23T03:24:27.657Z,100758.06
2023-01-23T03:27:22.445Z,100748.84
2023-01-23T03:30:13.522Z,100750.81
2023-01-23T03:32:40.729Z,100750.84
2023-01-23T03:35:10.182Z,100743.91
2023-01-23T03:37:37.076Z,100743.00
2023-01-23T03:40:22.599Z,100737.34
2023-01-23T03:43:05.260Z,100735.63
2023-01-23T03:45:32.463Z,100733.66
2023-01-23T03:47:59.085Z,100726.22
2023-01-23T03:50:25.806Z,100725.66
2023-01-23T03:52:52.366Z,100734.91
2023-01-23T03:55:47.236Z,100729.72
2023-01-23T03:58:32.849Z,100740.88
2023-01-23T04:01:03.406Z,100740.22
2023-01-23T04:03:30.435Z,100744.50
2023-01-23T04:05:58.375Z,100747.59
2023-01-23T04:08:25.322Z,100744.28
2023-01-23T04:10:51.887Z,100738.34
2023-01-23T04:15:53.687Z,100745.69
2023-01-23T04:18:20.277Z,100747.53
2023-01-23T04:20:47.653Z,100754.25
2023-01-23T04:23:32.458Z,100751.19
2023-01-23T04:26:53.947Z,100749.47
2023-01-23T04:29:20.742Z,100761.31
2023-01-23T04:31:47.465Z,100742.09
2023-01-23T04:34:14.154Z,100744.16
2023-01-23T04:36:40.937Z,100748.09
2023-01-23T04:39:07.493Z,100746.81
2023-01-23T04:41:58.629Z,100751.66
2023-01-23T04:44:26.986Z,100743.91
2023-01-23T04:46:54.346Z,100743.75
2023-01-23T04:49:22.797Z,100743.75
2023-01-23T04:51:50.188Z,100744.59
2023-01-23T04:57:43.407Z,100754.63
2023-01-23T05:00:10.695Z,100762.03
2023-01-23T05:02:37.427Z,100757.53
2023-01-23T05:05:04.298Z,100767.59
2023-01-23T05:07:30.846Z,100760.75
2023-01-23T05:09:57.374Z,100759.53
2023-01-23T05:14:59.179Z,100772.97
2023-01-23T05:17:25.816Z,100765.66
2023-01-23T05:19:52.380Z,100767.19
2023-01-23T05:22:19.195Z,100761.06
2023-01-23T05:24:45.776Z,100768.75
2023-01-23T05:33:12.302Z,100771.44
2023-01-23T05:35:40.114Z,100768.81
2023-01-23T05:38:07.030Z,100767.38
2023-01-23T05:40:33.600Z,100773.16
2023-01-23T05:43:00.157Z,100772.84
2023-01-23T05:45:26.694Z,100772.13
2023-01-23T05:48:04.572Z,100772.72
2023-01-23T05:50:32.778Z,100791.12
2023-01-23T05:53:00.327Z,100794.75
2023-01-23T05:55:26.905Z,100781.38
2023-01-23T05:58:51.145Z,100795.91
2023-01-23T06:01:35.630Z,100812.28
2023-01-23T06:04:02.300Z,100804.88
2023-01-23T06:06:28.952Z,100804.81
2023-01-23T06:08:55.489Z,100798.19
2023-01-23T06:11:22.065Z,100807.44
2023-01-23T06:13:48.672Z,100812.44
2023-01-23T06:16:15.270Z,100812.44
2023-01-23T06:18:41.858Z,100816.81
2023-01-23T06:21:08.870Z,100816.75
2023-01-23T06:23:35.421Z,100814.53
2023-01-23T06:26:03.563Z,100815.53
2023-01-23T06:28:30.334Z,100828.84
2023-01-23T06:31:01.474Z,100832.66
2023-01-23T06:33:28.161Z,100834.47
2023-01-23T06:36:02.444Z,100832.47
2023-01-23T06:38:29.516Z,100832.44
2023-01-23T06:40:56.169Z,100835.19
2023-01-23T06:43:23.977Z,100847.66
2023-01-23T06:45:51.148Z,100875.19
2023-01-23T06:48:18.259Z,100849.00
2023-01-23T06:50:44.967Z,100851.97
2023-01-23T06:53:14.837Z,100860.75
2023-01-23T06:55:41.419Z,100853.75
2023-01-23T06:58:08.355Z,100847.53
2023-01-23T07:03:15.065Z,100866.19
2023-01-23T07:05:43.444Z,100873.50
2023-01-23T07:08:10.825Z,100880.69
2023-01-23T07:10:40.725Z,100879.78
2023-01-23T07:13:09.668Z,100882.38
2023-01-23T07:15:36.695Z,100879.53
2023-01-23T07:21:42.580Z,100878.72
2023-01-23T07:24:09.347Z,100888.66
2023-01-23T07:26:35.894Z,100892.66
2023-01-23T07:29:02.527Z,100887.06
2023-01-23T07:31:29.086Z,100881.75
2023-01-23T07:33:55.673Z,100887.72
2023-01-23T07:39:03.557Z,100891.09
2023-01-23T07:41:30.116Z,100888.47
2023-01-23T07:43:56.683Z,100892.88
2023-01-23T07:46:48.009Z,100890.38
2023-01-23T07:49:39.339Z,100891.81
2023-01-23T07:52:15.165Z,100895.78
2023-01-23T07:54:41.756Z,100892.59
2023-01-23T07:57:08.313Z,100892.03
2023-01-23T07:59:34.855Z,100885.44
2023-01-23T08:02:01.453Z,100893.69
2023-01-23T08:04:28.089Z,100898.25
2023-01-23T08:06:54.643Z,100894.50
2023-01-23T08:09:21.273Z,100897.59
2023-01-23T08:11:47.804Z,100903.47
2023-01-23T08:14:14.707Z,100890.72
2023-01-23T08:16:41.507Z,100895.34
2023-01-23T08:19:08.505Z,100899.66
2023-01-23T08:21:35.372Z,100906.28
2023-01-23T08:24:04.757Z,100906.78
2023-01-23T08:26:31.587Z,100904.91
2023-01-23T08:28:58.303Z,100904.53
2023-01-23T08:31:24.926Z,100904.66
2023-01-23T08:33:51.593Z,100902.50
2023-01-23T08:36:18.323Z,100904.91
2023-01-23T08:38:44.886Z,100904.69
2023-01-23T08:41:14.433Z,100914.06
2023-01-23T08:43:41.756Z,100919.66
2023-01-23T08:46:10.385Z,100911.53
2023-01-23T08:48:38.007Z,100909.53
2023-01-23T08:51:07.694Z,100910.88
2023-01-23T08:53:35.191Z,100917.75
2023-01-23T08:56:06.312Z,100915.31
2023-01-23T08:58:33.481Z,100919.59
2023-01-23T09:01:00.728Z,100920.78
2023-01-23T09:03:28.590Z,100913.72
2023-01-23T09:05:55.528Z,100916.69
2023-01-23T09:08:22.212Z,100916.03
2023-01-23T09:10:48.850Z,100912.28
2023-01-23T09:13:15.941Z,100916.69
2023-01-23T09:15:42.628Z,100924.28
2023-01-23T09:18:09.596Z,100924.87
2023-01-23T09:20:38.028Z,100924.75
2023-01-23T09:23:04.598Z,100921.97
2023-01-23T09:25:31.643Z,100925.91
2023-01-23T09:27:58.424Z,100917.88
2023-01-23T09:30:25.053Z,100924.09
2023-01-23T09:32:51.649Z,100914.69
2023-01-23T09:38:07.686Z,100919.03
2023-01-23T09:40:45.227Z,100916.06
2023-01-23T09:43:48.987Z,100914.66
2023-01-23T09:46:34.253Z,100913.59
2023-01-23T09:49:08.180Z,100918.19
2023-01-23T09:52:15.347Z,100916.00
2023-01-23T09:55:25.119Z,100918.09
2023-01-23T09:57:57.438Z,100925.53
2023-01-23T10:00:32.577Z,100921.66
2023-01-23T10:03:06.369Z,100918.53
2023-01-23T10:06:10.818Z,100919.53
2023-01-23T10:08:46.267Z,100915.66
2023-01-23T10:11:27.394Z,100910.31
2023-01-23T10:14:31.239Z,100914.78
2023-01-23T10:17:04.251Z,100917.00
2023-01-23T10:19:33.751Z,100920.84
2023-01-23T10:22:06.326Z,100923.38
2023-01-23T10:25:06.857Z,100928.81
2023-01-23T10:27:38.780Z,100923.00
2023-01-23T10:30:19.078Z,100914.00
2023-01-23T10:33:01.565Z,100915.63
2023-01-23T10:35:42.763Z,100920.72
2023-01-23T10:38:18.601Z,100919.50
2023-01-23T10:41:23.347Z,100916.91
2023-01-23T10:43:52.531Z,100920.84
2023-01-23T10:46:29.047Z,100916.38
2023-01-23T10:48:56.388Z,100902.94
2023-01-23T10:51:45.738Z,100902.13
2023-01-23T10:57:14.955Z,100894.78
2023-01-23T11:00:01.370Z,100897.94
2023-01-23T11:02:31.232Z,100889.03
2023-01-23T11:09:10.121Z,100888.06
2023-01-23T11:11:36.887Z,100895.63
2023-01-23T11:14:14.876Z,100885.03
2023-01-23T11:16:41.581Z,100891.94
2023-01-23T11:19:08.073Z,100891.59
2023-01-23T11:21:56.335Z,100883.75
2023-01-23T11:24:38.643Z,100877.97
2023-01-23T11:27:19.442Z,100874.25
2023-01-23T11:30:07.829Z,100876.69
2023-01-23T11:33:08.234Z,100864.78
2023-01-23T11:36:04.044Z,100859.75
2023-01-23T11:38:52.280Z,100862.22
2023-01-23T11:41:19.672Z,100860.84
2023-01-23T11:43:46.286Z,100858.66
2023-01-23T11:46:37.937Z,100857.09
2023-01-23T11:49:30.617Z,100852.94
2023-01-23T11:52:13.243Z,100858.28
2023-01-23T11:55:12.377Z,100861.19
2023-01-23T11:57:54.192Z,100852.25
2023-01-23T12:00:43.175Z,100849.44
2023-01-23T12:03:15.500Z,100857.37
2023-01-23T12:06:13.859Z,100845.56
2023-01-23T12:08:50.544Z,100852.41
2023-01-23T12:11:20.424Z,100843.59
2023-01-23T12:14:09.695Z,100846.94
2023-01-23T12:16:48.405Z,100850.06
2023-01-23T12:19:39.637Z,100852.09
2023-01-23T12:22:24.226Z,100855.09
2023-01-23T12:25:03.563Z,100848.50
2023-01-23T12:27:46.400Z,100857.97
2023-01-23T12:30:31.821Z,100855.09
2023-01-23T12:33:04.411Z,100843.97
2023-01-23T12:35:39.833Z,100845.66
2023-01-23T12:38:27.175Z,100858.69
2023-01-23T12:41:07.893Z,100853.13
2023-01-23T12:43:40.439Z,100856.00
2023-01-23T12:46:16.238Z,100854.47
2023-01-23T12:49:06.890Z,100852.31
2023-01-23T12:51:45.723Z,100849.25
2023-01-23T12:54:24.958Z,100845.19
2023-01-23T12:56:52.053Z,100844.19
2023-01-23T12:59:50.368Z,100859.25
2023-01-23T13:02:27.787Z,100856.25
2023-01-23T13:05:02.742Z,100857.59
2023-01-23T13:07:58.240Z,100861.69
2023-01-23T13:10:24.826Z,100858.59
2023-01-23T13:12:56.251Z,100855.47
2023-01-23T13:15:40.072Z,100866.84
2023-01-23T13:18:27.763Z,100875.31
2023-01-23T13:21:19.192Z,100868.13
2023-01-23T13:23:45.986Z,100875.06
2023-01-23T13:26:15.793Z,100871.34
2023-01-23T13:28:50.496Z,100875.28
2023-01-23T13:31:46.375Z,100874.91
2023-01-23T13:34:16.313Z,100877.19
2023-01-23T13:36:44.979Z,100878.53
2023-01-23T13:39:17.517Z,100889.25
2023-01-23T13:41:46.040Z,100882.03
2023-01-23T14:24:40.025Z,100889.94
2023-01-23T14:27:21.988Z,100893.97
2023-01-23T14:30:10.516Z,100892.59
2023-01-23T14:32:38.456Z,100892.94
2023-01-23T14:35:19.614Z,100900.00
2023-01-23T14:37:47.111Z,100902.56
2023-01-23T14:40:27.564Z,100903.66
2023-01-23T14:43:00.879Z,100899.62
2023-01-23T14:45:32.197Z,100897.28
2023-01-23T14:48:06.091Z,100892.47
2023-01-23T14:58:47.578Z,100906.75
2023-01-23T15:01:14.234Z,100908.47
2023-01-23T15:03:43.985Z,100906.09
2023-01-23T15:09:58.612Z,100908.50
2023-01-23T15:12:25.374Z,100907.56
2023-01-23T15:14:56.392Z,100904.87
2023-01-23T15:17:23.152Z,100920.06
2023-01-23T15:19:59.341Z,100922.50
2023-01-23T15:22:30.343Z,100922.44
2023-01-23T15:24:57.354Z,100919.78
2023-01-23T15:27:35.362Z,100924.53
2023-01-23T15:30:30.109Z,100927.56
2023-01-23T15:32:58.104Z,100931.94
2023-01-23T15:35:25.126Z,100937.44
2023-01-23T15:37:59.624Z,100946.13
2023-01-23T15:40:27.965Z,100946.47
2023-01-23T15:43:00.710Z,100948.47
2023-01-23T15:45:27.622Z,100944.63
2023-01-23T15:47:54.170Z,100949.25
2023-01-23T15:50:21.272Z,100952.00
2023-01-23T15:52:50.388Z,100955.94
2023-01-23T15:55:18.102Z,100953.44
2023-01-23T15:57:44.754Z,100957.62
2023-01-23T16:00:15.026Z,100951.94
2023-01-23T16:02:54.741Z,100953.59
2023-01-23T16:05:25.558Z,100952.56
2023-01-23T16:07:53.637Z,100948.53
2023-01-23T16:10:22.230Z,100948.97
2023-01-23T16:12:50.977Z,100944.63
2023-01-23T16:15:38.325Z,100950.62
2023-01-23T16:18:05.066Z,100939.16
2023-01-23T16:20:38.277Z,100943.84
2023-01-23T16:23:15.282Z,100944.72
2023-01-23T16:25:45.071Z,100953.97
2023-01-23T16:28:17.120Z,100958.63
2023-01-23T16:30:44.248Z,100963.91
2023-01-23T16:33:11.099Z,100972.34
2023-01-23T16:35:37.823Z,100978.12
2023-01-23T16:38:05.255Z,100978.75
2023-01-23T16:40:32.701Z,100977.81
2023-01-23T16:43:00.049Z,100988.00
2023-01-23T16:45:29.078Z,100984.56
2023-01-23T16:47:56.608Z,100987.59
2023-01-23T16:50:38.961Z,100992.34
2023-01-23T16:53:18.360Z,100995.56
2023-01-23T16:55:45.643Z,100996.47
2023-01-23T16:58:21.463Z,100993.56
2023-01-23T17:00:49.226Z,100999.78
2023-01-23T17:03:24.909Z,101005.19
2023-01-23T17:05:51.513Z,101011.13
2023-01-23T17:08:23.906Z,101008.56
2023-01-23T17:11:00.022Z,101011.38
2023-01-23T17:13:28.489Z,101012.78
2023-01-23T17:15:56.217Z,101000.22
2023-01-23T17:18:28.307Z,101012.66
2023-01-23T17:20:55.786Z,101001.50
2023-01-23T17:23:23.910Z,101002.47
2023-01-23T17:26:00.422Z,101002.41
2023-01-23T17:28:28.568Z,100996.84
2023-01-23T17:30:55.663Z,101007.09
2023-01-23T17:33:28.697Z,101017.28
2023-01-23T17:35:56.108Z,101006.75
2023-01-23T17:38:28.941Z,100999.00
2023-01-23T17:40:55.518Z,101002.69
2023-01-23T17:43:22.207Z,101007.13
2023-01-23T17:45:51.369Z,101004.88
2023-01-23T17:48:25.269Z,101007.22
2023-01-23T17:50:52.071Z,101000.59
2023-01-23T17:53:19.479Z,101003.03
2023-01-23T17:55:49.166Z,101013.28
2023-01-23T17:58:16.314Z,101007.94
2023-01-23T18:00:45.969Z,101013.13
2023-01-23T18:03:15.268Z,101013.13
2023-01-23T18:05:41.832Z,101006.53
2023-01-23T18:08:29.463Z,101017.75
2023-01-23T18:10:59.063Z,101008.75
2023-01-23T18:13:35.886Z,101017.09
2023-01-23T18:16:12.568Z,101006.22
2023-01-23T18:18:41.849Z,101011.91
2023-01-23T18:21:17.961Z,101016.09
2023-01-23T18:23:44.968Z,101014.22
2023-01-23T18:26:26.863Z,101015.19
2023-01-23T18:29:18.820Z,101015.25
2023-01-23T18:32:04.076Z,101008.81
2023-01-23T18:34:45.581Z,101005.00
2023-01-23T18:37:41.655Z,101010.75
2023-01-23T18:40:32.792Z,101009.72
2023-01-23T18:43:38.703Z,101018.50
2023-01-23T18:46:11.977Z,101010.88
2023-01-23T18:48:41.497Z,101020.44
2023-01-23T18:51:20.904Z,101017.16
2023-01-23T18:54:10.240Z,101021.25
2023-01-23T18:56:38.473Z,101019.31
2023-01-23T18:59:19.078Z,101023.47
2023-01-23T19:01:54.113Z,101029.97
2023-01-23T19:04:30.744Z,101033.78
2023-01-23T19:06:58.321Z,101033.53
2023-01-23T19:09:26.323Z,101036.44
2023-01-23T19:12:02.831Z,101038.38
2023-01-23T19:14:48.369Z,101036.53
2023-01-23T19:17:49.054Z,101036.78
2023-01-23T19:20:32.950Z,101045.72
2023-01-23T19:23:41.381Z,101042.31
2023-01-23T19:26:13.376Z,101045.31
2023-01-23T19:28:40.126Z,101045.78
2023-01-23T19:31:16.779Z,101054.47
2023-01-23T19:33:43.366Z,101056.88
2023-01-23T19:36:12.785Z,101059.94
2023-01-23T19:38:39.670Z,101052.19
2023-01-23T19:41:06.725Z,101050.94
2023-01-23T19:43:33.259Z,101060.97
2023-01-23T19:46:00.246Z,101045.81
2023-01-23T19:48:26.881Z,101058.38
2023-01-23T19:50:53.514Z,101059.31
2023-01-23T19:53:20.095Z,101064.06
2023-01-23T19:55:49.938Z,101061.94
2023-01-23T19:58:16.529Z,101064.06
2023-01-23T20:00:43.285Z,101071.00
2023-01-23T20:03:14.538Z,101071.34
2023-01-23T20:05:41.265Z,101075.22
2023-01-23T20:08:09.185Z,101074.25
2023-01-23T20:10:36.603Z,101075.91
2023-01-23T20:13:03.158Z,101070.94
2023-01-23T20:15:30.587Z,101075.19
2023-01-23T20:17:57.537Z,101074.16
2023-01-23T20:20:24.447Z,101076.91
2023-01-23T20:22:51.540Z,101079.31
2023-01-23T20:25:18.423Z,101086.31
2023-01-23T20:27:45.256Z,101082.62
2023-01-23T20:30:17.025Z,101089.62
2023-01-23T20:32:44.265Z,101092.50
2023-01-23T20:35:11.089Z,101094.91
2023-01-23T20:37:37.627Z,101092.69
2023-01-23T20:40:04.931Z,101098.19
2023-01-23T20:42:31.543Z,101094.66
2023-01-23T20:44:58.096Z,101097.97
2023-01-23T20:47:24.746Z,101104.59
2023-01-23T20:49:53.344Z,101101.37
2023-01-23T20:52:38.569Z,101111.44
2023-01-23T20:55:14.313Z,101112.41
2023-01-23T20:57:59.471Z,101118.94
2023-01-23T21:00:26.070Z,101117.97
2023-01-23T21:02:53.225Z,101118.37
2023-01-23T21:05:47.863Z,101125.25
2023-01-23T21:08:35.191Z,101130.53
2023-01-23T21:11:14.033Z,101131.44
2023-01-23T21:13:41.122Z,101134.47
2023-01-23T21:16:13.558Z,101132.63
2023-01-23T21:18:44.666Z,101136.00
2023-01-23T21:21:14.425Z,101134.94
2023-01-23T21:23:41.185Z,101134.78
2023-01-23T21:26:07.759Z,101141.53
2023-01-23T21:28:36.559Z,101147.16
2023-01-23T21:31:14.737Z,101140.28
2023-01-23T21:33:44.106Z,101145.97
2023-01-23T21:36:12.168Z,101150.06
2023-01-23T21:38:38.968Z,101158.81
2023-01-23T21:41:05.691Z,101150.94
2023-01-23T21:43:33.600Z,101160.28
2023-01-23T21:46:00.411Z,101157.97
2023-01-23T21:48:31.343Z,101156.34
2023-01-23T21:51:15.788Z,101156.81
2023-01-23T21:56:20.269Z,101161.22
2023-01-23T21:58:47.468Z,101162.37
2023-01-23T22:01:32.701Z,101173.53
2023-01-23T22:04:01.486Z,101170.31
2023-01-23T22:06:28.805Z,101170.66
2023-01-23T22:09:55.797Z,101177.28
2023-01-23T22:13:12.244Z,101182.72
2023-01-23T22:15:39.110Z,101181.12
2023-01-23T22:18:05.705Z,101174.97
2023-01-23T22:20:32.270Z,101185.66
2023-01-23T22:22:58.800Z,101183.50
2023-01-23T22:25:25.337Z,101191.06
2023-01-23T22:27:51.909Z,101192.81
2023-01-23T22:30:18.841Z,101194.53
2023-01-23T22:32:45.519Z,101201.72
2023-01-23T22:35:12.078Z,101201.75
2023-01-23T22:37:43.534Z,101203.81
2023-01-23T22:40:10.913Z,101199.47
2023-01-23T22:42:37.524Z,101210.44
2023-01-23T22:45:18.928Z,101198.28
2023-01-23T22:47:45.829Z,101203.59
2023-01-23T22:50:12.416Z,101207.34
2023-01-23T22:52:41.459Z,101206.50
2023-01-23T22:55:40.826Z,101210.03
2023-01-23T22:58:30.171Z,101219.91
2023-01-23T23:00:56.765Z,101214.19
2023-01-23T23:03:23.432Z,101220.25
2023-01-23T23:06:04.747Z,101224.41
2023-01-23T23:08:46.331Z,101227.63
2023-01-23T23:11:23.528Z,101230.09
2023-01-23T23:14:05.481Z,101227.97
2023-01-23T23:16:32.216Z,101226.37
2023-01-23T23:19:01.738Z,101225.66
2023-01-23T23:21:33.294Z,101232.31
2023-01-23T23:27:43.121Z,101230.72
2023-01-23T23:30:10.331Z,101228.09
2023-01-23T23:41:02.039Z,101232.91
